Date,TemperatureHighF,TemperatureAvgF,TemperatureLowF,DewpointHighF,DewpointAvgF,DewpointLowF,HumidityHigh,HumidityAvg,HumidityLow,PressureMaxIn,PressureMinIn,WindSpeedMaxMPH,WindSpeedAvgMPH,GustSpeedMaxMPH,PrecipitationSumIn
2014-1-2,65,24,62,28,-53,-100,26,9,22,30.14,0.00,0,-632,0,0.00
2014-1-3,69,64,61,40,30,23,41,29,22,30.11,29.96,0,0,0,0.00
2014-1-4,66,60,59,43,28,-100,50,32,29,30.08,29.97,1,-31,0,0.00
2014-1-5,68,62,58,37,29,18,35,29,20,30.23,30.08,0,0,0,0.00
2014-1-6,68,63,60,31,26,19,28,24,20,30.29,30.18,0,0,0,0.00
2014-1-7,64,59,52,45,37,22,62,46,23,30.21,30.13,0,0,0,0.00
2014-1-8,60,55,51,45,38,30,62,54,39,30.21,30.12,13,1,0,0.00
2014-1-9,65,56,52,44,36,27,61,49,25,30.25,30.17,10,1,0,0.00
2014-1-10,72,60,49,45,39,36,61,47,27,30.29,30.16,4,0,0,0.00
2014-1-11,67,58,51,45,40,33,62,53,39,30.26,30.15,13,1,0,0.00
2014-1-12,61,53,48,40,30,22,56,42,33,30.34,30.22,5,0,0,0.00
2014-1-13,71,58,50,30,26,22,44,30,20,30.44,30.32,3,0,0,0.00
2014-1-14,76,70,61,33,21,-100,23,16,10,30.40,0.00,4,-15,0,0.00
2014-1-15,79,73,69,25,19,13,15,13,11,30.31,30.18,2,0,0,0.00
2014-1-16,78,73,70,25,19,16,15,13,12,30.20,30.12,1,0,0,0.00
2014-1-17,78,72,68,27,18,13,19,13,11,30.17,30.11,2,0,0,0.00
2014-1-18,75,70,66,28,19,15,18,14,13,30.15,30.06,1,0,0,0.00
2014-1-19,72,67,63,26,17,13,19,15,13,30.14,30.06,3,0,0,0.00
2014-1-20,70,65,61,25,19,14,21,17,15,30.19,30.11,1,0,0,0.00
2014-1-24,61,57,55,41,24,-100,59,33,20,30.31,30.25,9,-32,0,0.00
2014-1-25,68,63,58,35,28,21,31,27,22,30.29,30.16,6,0,0,0.00
2014-1-26,64,60,52,45,32,25,61,36,26,30.17,30.07,1,0,0,0.00
2014-1-28,71,65,62,51,45,-100,59,52,42,30.24,30.14,4,-17,0,0.00
2014-1-29,68,61,56,52,46,41,61,58,39,30.20,29.96,4,0,0,0.00
2014-1-30,58,51,44,44,37,31,64,59,55,29.98,29.88,3,0,0,0.00
2014-1-31,56,48,43,41,33,17,65,57,32,30.13,29.95,9,0,0,0.00
2014-2-1,56,48,43,38,27,17,62,45,29,30.19,30.11,7,0,0,0.00
2014-2-2,47,43,41,32,29,20,64,58,36,30.13,29.93,11,1,0,0.75
2014-2-3,56,49,42,42,36,30,65,63,60,30.12,30.04,4,0,0,0.00
2014-2-5,47,44,44,35,29,-100,64,61,62,30.18,30.15,0,-28,0,0.00
2014-2-6,52,37,44,36,6,-100,64,55,53,30.16,29.96,14,2,0,1.79
2014-2-7,48,37,44,33,5,-100,57,57,56,30.25,30.11,9,1,0,0.32
2014-2-8,-200,0,200,-100,-100,-100,56,8,56,30.31,30.23,7,2,0,1.77
2014-2-9,-200,0,200,-100,-100,-100,0,0,100,30.28,30.16,0,0,0,0.96
2014-2-10,63,26,55,48,-38,-100,61,23,41,30.24,30.18,14,-136,0,0.05
2014-2-11,63,59,54,38,30,21,44,33,26,30.26,30.16,5,0,0,0.00
2014-2-12,69,63,56,46,31,11,52,32,15,30.25,30.16,5,0,0,0.00
2014-2-13,72,67,61,49,40,31,52,38,28,30.19,30.09,3,0,0,0.00
2014-2-14,70,65,60,51,36,18,56,35,15,30.15,30.06,1,0,0,0.00
2014-2-15,68,60,50,44,29,8,61,36,10,30.11,29.99,2,0,0,0.00
2014-2-16,63,57,49,47,41,33,62,57,51,30.18,30.08,4,0,0,0.00
2014-2-17,64,58,55,46,37,19,60,49,22,30.16,30.08,7,0,0,0.00
2014-2-18,67,59,54,39,26,13,43,28,17,30.18,30.07,11,0,0,0.00
2014-2-19,62,57,52,46,37,19,60,49,21,30.16,30.08,17,2,0,0.00
2014-2-20,65,60,54,40,30,24,43,33,26,30.18,30.09,6,0,0,0.00
2014-2-21,72,63,58,41,32,28,36,31,26,30.10,29.97,5,0,0,0.00
2014-2-22,64,61,57,43,35,28,52,39,30,30.02,29.93,7,0,0,0.00
2014-2-24,65,60,55,46,37,-100,54,45,42,30.02,29.95,1,-16,0,0.00
2014-2-25,57,50,44,40,32,29,60,50,38,30.07,29.96,11,1,0,0.00
2014-2-26,52,44,47,33,16,-100,53,50,49,30.06,29.86,26,7,0,1.42
2014-3-1,-200,0,200,-100,-100,-100,0,0,100,29.83,29.70,19,-20,0,0.06
2014-3-3,-200,0,200,-100,-100,-100,0,0,100,0.00,0.00,0,-999,0,0.00
2014-3-4,-200,0,200,-100,-100,-100,0,0,100,0.00,0.00,0,-999,0,0.00
2014-3-5,-200,0,200,-100,-100,-100,0,0,100,0.00,0.00,0,-999,0,0.00
2014-3-13,75,65,60,39,26,-100,29,24,20,30.08,0.00,9,-39,0,0.00
2014-3-14,70,64,58,48,29,9,53,28,14,30.22,30.06,10,0,0,0.00
2014-3-15,76,69,64,46,38,26,39,32,20,30.30,30.20,11,1,0,0.00
2014-3-16,78,70,64,47,36,22,39,29,17,30.30,30.16,1,0,0,0.00
2014-3-17,67,61,56,49,34,8,57,41,11,30.17,29.92,14,1,0,0.00
2014-3-18,67,60,54,41,31,23,46,34,27,29.98,29.90,6,0,0,0.00
2014-3-19,71,63,57,43,32,21,40,32,21,30.10,29.98,1,0,0,0.00
2014-3-20,68,61,55,44,31,23,48,33,25,30.09,29.96,1,0,0,0.00
2014-3-21,59,50,44,38,32,25,60,50,33,30.06,29.95,3,0,0,0.00
2014-3-22,55,47,41,40,29,22,61,51,44,30.18,30.05,3,0,0,0.00
2014-3-23,65,59,47,48,36,21,58,43,27,30.20,30.11,1,0,0,0.00
2014-3-24,72,66,59,47,39,32,44,38,30,30.16,30.04,1,0,0,0.00
2014-3-25,62,56,50,44,34,22,57,44,26,30.05,29.94,4,0,0,0.11
2014-3-26,52,44,45,30,17,-100,44,40,42,30.07,29.94,4,-35,0,0.78
2014-3-27,55,49,44,38,30,23,61,48,41,30.21,30.07,3,0,0,0.25
2014-3-28,60,53,48,45,39,34,63,59,55,30.27,30.18,1,0,0,0.00
2014-3-29,60,51,44,43,32,23,59,49,40,30.22,30.05,3,0,0,0.61
2014-3-30,56,48,44,41,32,22,62,54,42,30.20,30.08,6,0,0,0.14
2014-3-31,49,44,40,34,27,20,63,51,42,30.14,29.91,13,1,0,0.70
2014-4-1,48,43,40,29,22,20,50,45,41,30.07,29.95,7,0,0,0.94
2014-4-2,52,45,40,36,26,19,62,48,40,30.17,29.97,4,0,0,0.29
2014-4-3,56,50,44,41,35,23,61,57,44,30.19,30.11,1,0,0,0.00
2014-4-4,56,47,43,42,30,22,60,52,41,30.12,30.04,8,1,0,0.21
2014-4-5,65,54,44,46,38,30,62,55,41,30.22,30.08,9,1,0,0.00
2014-4-6,62,56,54,44,38,35,56,52,49,30.23,30.19,3,0,0,0.00
2014-4-8,74,69,63,46,36,-100,39,33,30,30.12,30.07,4,0,0,0.00
2014-4-9,74,67,59,51,38,22,49,35,18,30.09,30.00,1,0,0,0.00
2014-4-10,78,68,50,49,36,19,59,32,16,30.03,29.91,4,0,0,0.00
2014-4-11,70,56,46,50,35,23,57,45,32,29.97,29.88,3,0,0,0.00
2014-4-12,56,48,43,39,26,22,56,44,39,30.03,29.93,2,0,0,0.00
2014-4-13,55,49,46,39,27,22,56,42,36,30.10,30.03,2,0,0,0.00
2014-4-14,74,67,57,52,43,33,56,43,28,30.16,30.06,4,0,0,0.00
2014-4-15,76,69,64,55,39,19,51,34,17,30.07,29.88,1,0,0,0.00
2014-4-16,75,70,65,55,42,20,52,37,17,29.89,29.79,6,0,0,0.00
2014-4-17,68,58,52,44,36,27,55,44,37,29.92,29.80,3,0,0,0.00
2014-4-18,55,51,47,39,27,23,54,39,36,30.00,29.97,0,0,0,0.00
2014-4-19,68,60,46,50,38,23,57,45,20,30.12,30.00,5,0,0,0.00
2014-4-20,75,67,58,47,35,16,40,31,16,30.14,30.05,3,0,0,0.00
2014-4-21,76,66,53,49,36,13,55,34,17,30.08,29.98,2,0,0,0.00
2014-4-22,63,52,44,44,33,23,59,50,35,30.12,29.98,12,2,0,0.01
2014-4-23,68,57,46,48,33,20,52,41,32,30.14,30.07,14,4,0,0.00
2014-4-24,72,60,54,52,42,35,56,51,44,30.11,29.97,4,0,0,0.00
2014-4-25,58,50,42,41,29,20,56,45,37,29.97,29.86,6,0,0,0.56
2014-4-26,56,48,42,41,31,19,59,53,41,30.15,29.91,6,1,0,0.01
2014-4-27,58,52,44,39,32,22,60,49,29,30.17,30.11,4,0,0,0.00
2014-4-28,72,60,50,49,38,24,53,44,33,30.21,30.13,10,1,0,0.00
2014-4-29,81,70,59,45,39,30,51,32,24,30.19,30.07,2,0,0,0.00
2014-4-30,85,77,71,50,40,36,37,27,21,30.10,30.03,2,0,0,0.00
2014-5-1,84,77,68,47,40,29,30,26,18,30.12,30.03,0,0,0,0.00
2014-5-2,86,78,69,48,35,23,28,21,15,30.07,29.98,1,0,0,0.00
2014-5-3,73,67,55,54,38,23,58,38,18,30.00,29.94,5,0,0,0.00
2014-5-4,68,58,51,50,42,36,58,55,52,30.06,29.97,2,0,0,0.00
2014-5-5,63,56,46,47,40,33,61,57,49,30.05,29.98,6,0,0,0.00
2014-5-6,59,51,45,44,37,32,61,59,57,30.01,29.96,5,0,0,0.00
2014-5-7,58,50,42,43,36,25,61,57,48,30.07,29.95,4,0,0,0.00
2014-5-8,62,54,46,47,36,27,61,53,35,30.17,30.06,3,0,0,0.00
2014-5-9,69,59,52,51,34,20,54,41,24,30.18,30.10,7,0,0,0.01
2014-5-10,70,57,50,48,35,19,57,44,25,30.12,30.02,11,0,0,0.00
2014-5-11,79,65,51,42,32,23,55,30,17,30.09,30.01,12,1,0,0.00
2014-5-12,79,71,63,41,34,26,30,26,22,30.13,30.05,3,0,0,0.00
2014-5-13,85,76,69,44,35,23,29,23,15,30.15,30.07,6,0,0,0.00
2014-5-14,88,81,74,45,37,22,27,21,14,30.14,30.05,6,0,0,0.00
2014-5-15,91,84,78,51,42,28,30,23,15,30.08,30.00,12,1,0,0.00
2014-5-16,88,81,72,52,35,26,30,20,14,30.03,29.92,10,0,0,0.00
2014-5-17,83,72,64,52,36,26,39,27,19,29.96,29.89,7,0,0,0.00
2014-5-18,75,64,56,53,42,29,54,45,32,29.96,29.90,10,0,0,0.00
2014-5-19,66,58,50,48,37,28,56,48,34,30.00,29.92,6,0,0,0.00
2014-5-20,61,52,46,44,32,24,54,49,39,30.09,29.98,6,0,0,0.00
2014-5-21,57,52,47,37,27,22,48,38,35,30.06,30.02,3,0,0,0.00
2014-5-22,58,51,46,41,27,21,55,39,34,30.11,29.99,4,0,0,0.00
2014-5-23,73,65,48,54,43,23,53,45,28,30.10,29.99,3,0,0,0.01
2014-5-24,75,66,54,56,42,24,54,44,16,30.02,29.94,3,0,0,0.00
2014-5-25,88,73,57,59,42,23,55,36,14,29.99,29.89,11,1,0,0.00
2014-5-26,89,79,73,57,39,21,40,25,13,29.98,29.91,14,1,0,0.00
2014-5-27,86,77,70,50,35,16,33,22,12,29.98,29.91,12,1,0,0.00
2014-5-28,86,74,65,43,26,8,26,17,10,29.95,29.87,10,1,0,0.00
2014-5-29,77,70,64,42,31,19,38,25,17,29.96,29.88,6,0,0,0.00
2014-5-30,76,70,63,48,35,12,37,28,12,29.95,29.88,1,0,0,0.00
2014-5-31,70,64,60,51,34,11,54,36,14,29.98,29.90,1,0,0,0.00
2014-6-1,80,69,53,49,38,30,56,32,23,29.93,29.84,2,0,0,0.00
2014-6-2,59,51,44,39,27,20,55,41,35,29.99,29.84,3,0,0,0.00
2014-6-3,64,54,46,44,32,21,54,42,33,30.02,29.93,2,0,0,0.00
2014-6-4,82,72,61,51,42,34,42,35,23,29.94,29.84,1,0,0,0.00
2014-6-5,80,73,66,52,40,28,42,31,19,29.87,29.82,1,0,0,0.00
2014-6-6,78,68,56,54,35,19,54,31,16,29.86,29.81,0,0,0,0.00
2014-6-7,78,67,57,54,41,26,53,40,21,29.87,29.82,1,0,0,0.00
2014-6-8,92,84,77,56,43,31,36,25,17,29.84,29.74,0,0,0,0.00
2014-6-9,83,75,62,56,49,44,54,42,28,29.76,29.71,5,0,0,0.00
2014-6-10,70,62,52,52,40,24,55,46,33,29.90,29.73,3,0,0,0.00
2014-6-11,57,53,51,28,26,24,37,35,32,29.99,29.89,3,0,0,0.00
2014-6-12,66,56,50,48,33,24,53,42,31,30.05,29.96,1,0,0,0.01
2014-6-13,79,65,52,55,40,19,55,43,15,30.01,29.93,5,0,0,0.00
2014-6-14,83,73,67,48,35,14,39,25,13,29.95,29.83,1,0,0,0.00
2014-6-15,69,59,48,43,32,20,53,38,16,29.91,29.79,2,0,0,0.00
2014-6-16,65,55,46,46,32,20,54,43,32,30.01,29.90,3,0,0,0.00
2014-6-17,68,59,49,49,36,18,54,43,22,30.00,29.93,1,0,0,0.00
2014-6-18,79,70,64,53,40,31,50,34,23,29.98,29.94,6,0,0,0.00
2014-6-19,83,76,67,50,36,27,36,24,17,30.00,29.94,3,0,0,0.00
2014-6-20,93,81,71,48,34,24,24,19,14,29.95,29.87,14,1,0,0.00
2014-6-21,83,77,71,50,34,15,37,22,11,29.88,29.83,1,0,0,0.00
2014-6-22,77,72,68,53,35,11,49,28,10,29.93,29.86,4,0,0,0.00
2014-6-23,80,72,64,55,39,24,52,33,17,29.97,29.89,6,0,0,0.00
2014-6-24,89,79,72,55,44,34,36,29,22,29.98,29.90,6,0,0,0.00
2014-6-25,83,73,64,58,48,42,52,42,33,29.96,29.89,2,0,0,0.00
2014-6-26,76,66,60,54,46,39,53,50,44,29.97,29.92,3,0,0,0.00
2014-6-27,84,71,60,57,50,43,53,47,37,29.98,29.90,2,0,0,0.00
2014-6-28,84,77,69,55,44,18,44,32,10,29.92,29.85,4,0,0,0.00
2014-6-29,91,83,73,49,38,16,28,21,9,29.90,29.80,0,0,0,0.00
2014-6-30,82,76,64,56,48,43,53,38,25,29.85,29.80,5,0,0,0.00
2014-7-1,73,67,60,54,47,40,52,49,41,29.88,29.80,1,0,0,0.00
2014-7-2,76,67,59,55,45,36,52,46,33,29.95,29.84,1,0,0,0.00
2014-7-3,80,74,67,57,48,36,52,40,22,29.98,29.89,1,0,0,0.00
2014-7-4,84,76,66,54,43,29,46,32,17,29.99,29.90,5,0,0,0.00
2014-7-5,88,81,75,49,42,27,32,25,16,30.08,30.01,3,0,0,0.00
2014-7-6,93,84,73,53,40,28,27,21,15,30.02,29.90,1,0,0,0.00
2014-7-7,87,81,71,56,39,24,47,25,13,29.90,29.84,1,0,0,0.00
2014-7-8,79,71,62,55,45,28,54,41,16,29.96,29.85,1,0,0,0.00
2014-7-13,97,91,91,55,48,41,25,21,16,29.93,29.83,6,1,0,0.00
2014-7-14,77,72,68,55,52,46,49,46,44,29.95,0.00,1,0,0,0.00
2014-7-19,-200,0,200,-100,0,200,0,0,100,0.00,40.00,0,0,0,0.00
2014-7-20,-200,0,200,-100,0,200,0,0,100,0.00,40.00,0,0,0,0.00
2014-7-21,-200,0,200,-100,0,200,0,0,100,0.00,0.00,0,0,0,0.00
2014-7-22,-200,0,200,-100,0,200,0,0,100,0.00,0.00,0,0,0,0.00
2014-7-23,-200,0,200,-100,0,200,0,0,100,20.92,0.00,0,0,0,0.00
2014-7-24,-200,0,200,-100,0,200,0,0,100,0.00,0.00,0,0,0,0.00
2014-7-25,83,46,68,57,33,50,53,32,41,29.96,0.00,0,0,0,0.00
2014-7-26,84,75,68,60,53,48,54,47,40,30.00,29.93,1,0,0,0.00
2014-7-27,86,76,67,60,50,30,54,41,20,30.01,29.95,1,0,0,0.00
2014-7-28,83,76,70,60,46,30,53,36,20,30.08,29.99,1,0,0,0.00
2014-7-29,87,80,70,57,42,26,40,27,16,30.06,29.98,0,0,0,0.00
2014-7-30,89,82,75,51,44,32,35,27,14,30.00,29.94,1,0,0,0.00
2014-7-31,92,83,72,60,47,33,45,30,16,29.95,29.87,0,0,0,0.00
2014-8-1,91,84,74,61,44,29,50,26,14,29.91,29.84,1,0,0,0.00
2014-8-2,91,83,63,58,46,38,54,30,19,29.91,29.85,4,0,0,0.00
2014-8-3,80,70,60,58,49,38,53,47,30,29.97,29.90,5,0,0,0.00
2014-8-4,62,56,52,36,27,23,44,32,28,30.06,29.94,3,0,0,0.00
2014-8-5,82,62,53,57,35,24,51,37,27,30.13,30.05,3,0,0,0.00
2014-8-6,73,65,58,51,38,24,47,37,26,30.08,30.01,3,0,0,0.00
2014-8-7,78,70,56,57,45,23,51,42,27,30.03,29.91,0,0,0,0.00
2014-8-8,77,72,67,56,47,37,51,42,28,29.95,29.88,2,0,0,0.00
2014-8-9,76,69,64,51,43,36,51,41,26,30.00,29.91,1,0,0,0.00
2014-8-10,71,65,53,48,39,28,52,40,24,30.04,29.95,0,0,0,0.00
2014-8-12,63,52,56,42,30,24,51,35,29,29.99,0.00,0,0,0,0.00
2014-8-13,72,65,56,51,42,30,51,44,31,30.05,29.96,0,0,0,0.00
2014-8-14,75,68,60,54,45,33,51,44,34,30.01,29.95,0,0,0,0.00
2014-8-15,78,70,58,56,43,27,52,40,16,30.03,29.96,4,0,0,0.00
2014-8-16,84,74,64,54,41,26,42,31,19,30.05,29.98,1,0,0,0.00
2014-8-17,84,77,71,55,36,21,40,24,14,30.01,29.90,1,0,0,0.00
2014-8-18,78,73,64,58,46,34,52,40,24,29.89,29.81,0,0,0,0.00
2014-8-19,63,56,52,42,26,22,48,31,27,29.94,29.83,1,0,0,0.00
2014-8-20,69,59,53,48,32,24,47,36,28,30.04,29.93,3,0,0,0.00
2014-8-21,79,70,61,55,43,22,53,40,13,30.01,29.94,4,0,0,0.00
2014-8-22,80,71,63,56,42,29,52,36,21,29.98,29.92,0,0,0,0.00
2014-8-23,65,58,51,46,30,21,52,35,26,30.01,29.92,4,0,0,0.00
2014-8-24,67,57,52,44,26,21,45,31,26,29.98,29.91,2,0,0,0.00
2014-8-25,66,57,52,44,29,21,46,34,28,30.02,29.92,2,0,0,0.00
2014-8-26,71,60,52,49,34,21,51,37,27,30.08,30.00,0,0,0,0.01
2014-8-27,79,69,60,58,46,38,51,44,31,30.11,30.04,2,0,0,0.00
2014-8-28,78,69,59,57,44,29,52,42,25,30.07,29.95,2,0,0,0.00
2014-8-29,87,80,72,58,47,34,51,33,17,29.97,29.86,8,0,0,0.00
2014-8-30,92,87,82,55,44,35,30,22,18,29.89,29.83,11,1,0,0.00
2014-8-31,85,80,79,58,48,38,44,32,22,29.87,0.00,7,0,0,0.00
2014-9-1,85,78,70,56,46,36,42,32,21,29.83,29.78,6,0,0,0.00
2014-9-2,75,70,57,54,47,35,52,44,36,29.88,29.79,0,0,0,0.00
2014-9-3,64,56,51,37,26,20,51,31,26,29.86,29.77,1,0,0,0.00
2014-9-4,68,58,51,42,27,19,47,31,26,29.88,29.76,4,0,0,0.00
2014-9-5,69,59,51,49,30,19,51,34,25,29.96,29.87,3,0,0,0.01
2014-9-6,82,68,59,55,35,7,51,35,7,29.98,29.90,1,0,0,0.00
2014-9-7,82,74,69,56,34,13,50,25,10,29.90,29.79,1,0,0,0.00
2014-9-8,70,66,58,50,39,24,52,38,21,29.95,29.81,2,0,0,0.00
2014-9-9,81,73,60,47,32,21,43,22,11,30.00,29.90,1,0,0,0.00
2014-9-10,88,81,76,43,35,28,23,20,14,29.94,29.84,3,0,0,0.00
2014-9-11,89,81,76,49,42,33,31,25,19,29.89,29.82,1,0,0,0.00
2014-9-12,91,84,77,49,44,40,28,25,21,29.87,29.79,3,0,0,0.00
2014-9-13,93,80,64,57,46,37,49,31,21,29.82,29.77,3,0,0,0.00
2014-9-14,90,82,73,54,46,42,34,28,23,29.84,29.76,1,0,0,0.00
2014-9-15,86,78,72,53,43,35,39,29,22,29.89,29.81,1,0,0,0.00
2014-9-16,92,79,70,46,33,23,29,19,12,29.90,29.81,4,0,0,0.00
2014-9-17,82,72,61,54,35,23,49,27,14,29.85,29.78,2,0,0,0.00
2014-9-18,67,62,58,32,28,24,30,28,23,29.93,29.83,0,0,0,0.29
2014-9-19,73,66,57,51,38,23,48,36,26,29.96,29.90,0,0,0,0.01
2014-9-20,68,63,56,42,32,23,42,32,24,29.99,29.89,2,0,0,0.00
2014-9-21,65,58,55,34,27,25,33,31,27,30.08,29.98,3,0,0,0.01
2014-9-22,81,73,64,58,51,34,51,46,33,30.06,29.95,1,0,0,0.00
2014-9-23,78,71,64,57,51,42,50,48,43,30.00,29.93,1,0,0,0.00
2014-9-24,77,66,60,57,40,24,50,40,24,29.98,29.93,2,0,0,0.00
2014-9-25,69,62,58,45,33,23,50,34,24,30.04,29.93,3,0,0,0.20
2014-9-26,71,62,56,50,43,34,52,49,43,30.01,29.92,12,1,0,0.00
2014-9-27,65,58,53,40,30,20,44,35,27,29.99,29.90,2,0,0,0.00
2014-9-28,63,56,52,38,24,20,42,29,25,29.99,29.89,2,0,0,0.01
2014-9-29,74,66,59,54,45,33,51,46,38,30.07,29.96,5,0,0,0.00
2014-9-30,77,70,65,57,48,30,52,47,23,29.99,29.81,14,1,0,0.00
2014-10-1,83,74,64,48,41,31,44,32,20,29.93,29.81,6,0,0,0.00
2014-10-2,88,79,72,44,40,31,28,24,19,30.02,29.93,4,0,0,0.00
2014-10-3,90,82,76,42,37,28,26,20,16,30.08,30.02,4,0,0,0.00
2014-10-4,92,85,79,44,38,34,21,18,15,30.03,29.91,1,0,0,0.00
2014-10-5,93,85,81,43,37,30,21,18,14,29.93,29.86,1,0,0,0.00
2014-10-6,91,84,79,45,37,28,23,19,14,29.91,29.84,1,0,0,0.00
2014-10-7,88,82,77,50,34,24,28,18,12,29.91,29.81,1,0,0,0.00
2014-10-8,94,83,75,49,40,34,28,22,16,29.88,29.82,8,1,0,0.00
2014-10-9,86,80,71,53,36,24,38,22,14,29.95,29.86,10,1,0,0.00
2014-10-10,80,75,69,56,42,28,49,32,22,30.01,29.95,5,0,0,0.00
2014-10-11,85,78,72,51,41,27,34,27,17,30.02,29.93,6,0,0,0.00
2014-10-12,86,79,72,50,40,23,31,25,13,29.94,29.88,4,0,0,0.00
2014-10-13,85,76,69,58,38,23,49,26,13,29.98,29.92,5,0,0,0.00
2014-10-14,70,59,55,43,26,21,49,29,25,29.98,29.91,12,1,0,0.00
2014-10-15,67,58,56,43,26,21,41,28,24,30.09,29.95,2,0,0,0.02
2014-10-16,66,60,57,46,38,25,53,44,28,30.07,29.98,0,0,0,0.00
2014-10-17,67,59,54,48,39,28,54,48,33,30.05,29.97,3,0,0,0.00
2014-10-18,71,64,56,51,42,31,52,45,36,30.03,29.92,0,0,0,0.00
2014-10-19,73,65,59,54,45,30,53,47,31,29.95,29.89,2,0,0,0.00
2014-10-20,66,59,54,42,30,20,52,34,23,30.06,29.93,14,1,0,0.00
2014-10-21,72,62,55,50,37,29,50,39,28,30.09,29.98,9,0,0,0.00
2014-10-22,75,67,60,46,38,31,43,35,24,30.07,30.00,0,0,0,0.00
2014-10-23,78,70,62,48,42,36,45,36,28,30.05,29.95,3,0,0,0.00
2014-10-24,72,63,54,51,36,20,51,37,25,30.04,29.94,4,0,0,0.00
2014-10-25,62,35,56,38,16,21,52,18,25,30.16,30.01,7,0,0,0.39
2014-10-26,71,60,55,46,38,32,52,46,26,30.16,30.04,12,2,0,0.00
2014-10-27,71,62,54,46,37,32,51,40,31,30.06,30.00,4,0,0,0.39
2014-10-28,75,66,59,43,37,31,41,34,22,30.11,30.04,2,0,0,0.00
2014-10-29,81,73,68,44,39,35,34,30,24,30.11,29.99,4,0,0,0.00
2014-10-30,73,65,56,50,39,21,51,39,25,29.99,29.91,3,0,0,0.00
2014-10-31,58,53,48,27,23,18,32,31,28,29.98,29.75,11,0,0,1.35
2014-11-1,53,49,45,31,20,17,49,33,28,30.11,29.83,5,0,0,0.69
2014-11-2,64,54,48,45,34,25,54,48,39,30.21,30.11,5,0,0,0.00
2014-11-3,61,56,52,44,36,27,53,47,36,30.29,30.20,11,0,0,0.00
2014-11-4,69,62,54,44,36,28,48,38,25,30.31,30.23,3,0,0,0.00
2014-11-5,78,70,64,44,35,26,33,27,19,30.22,30.09,2,0,0,0.00
2014-11-6,79,72,66,44,36,26,34,27,18,30.22,30.15,2,0,0,0.00
2014-11-7,81,74,68,46,37,28,34,27,19,30.18,30.06,0,0,0,0.00
2014-11-8,78,72,68,47,42,37,38,34,27,30.10,30.00,1,0,0,0.00
2014-11-9,78,72,66,49,42,37,43,34,30,30.02,29.82,0,0,0,0.00
2014-11-10,69,58,51,47,28,19,52,32,26,29.91,29.79,3,0,0,0.00
2014-11-11,58,52,50,27,22,20,34,32,28,30.04,29.91,4,0,0,0.03
2014-11-12,56,52,49,35,25,19,45,35,29,30.10,30.03,4,0,0,0.00
2014-11-13,59,56,53,34,27,20,46,32,27,30.11,30.05,1,0,0,0.50
2014-11-14,64,53,53,46,35,31,54,45,40,30.14,30.08,5,0,0,0.00
2014-11-15,63,58,52,45,39,30,54,49,36,30.17,30.09,15,1,0,0.00
2014-11-16,60,56,54,43,35,23,54,45,27,30.27,30.15,7,0,0,0.00
2014-11-17,64,59,55,45,35,15,53,43,18,30.25,30.13,3,0,0,0.00
2014-11-18,67,61,54,38,24,14,52,25,16,30.17,30.10,10,1,0,0.00
2014-11-19,58,54,51,37,25,19,53,32,24,30.18,30.08,11,1,0,0.88
2014-11-20,54,52,50,23,21,19,31,30,28,30.20,30.04,2,0,0,0.10
2014-11-21,61,54,53,38,30,20,53,39,27,30.20,0.00,2,0,0,0.00
2014-11-22,61,56,54,38,31,21,53,40,26,30.23,30.15,12,1,0,0.49
2014-11-23,67,59,54,45,27,11,50,31,15,30.32,30.20,9,1,0,0.00
2014-11-24,67,61,57,46,27,9,52,30,14,30.41,30.28,0,0,0,0.00
2014-11-25,71,65,60,40,31,21,36,28,21,30.44,30.33,0,0,0,0.00
2014-11-26,79,70,63,42,34,27,32,27,21,30.32,30.20,0,0,0,0.00
2014-11-27,80,72,65,45,29,4,34,21,8,30.19,30.06,0,0,0,0.00
2014-11-28,72,64,55,37,15,-2,29,16,6,30.06,29.91,0,0,0,0.00
2014-11-29,61,56,49,40,29,13,53,37,19,29.92,29.81,5,0,0,0.00
2014-11-30,55,33,52,31,13,13,45,18,19,30.10,29.81,24,5,0,0.83
2014-12-1,59,4,57,39,2,35,48,2,42,30.18,29.97,19,5,0,0.17
2014-12-2,60,54,52,41,26,20,50,34,27,29.95,29.77,25,5,0,1.54
2014-12-4,-90,-87,-90,-100,0,200,0,0,100,30.92,0.00,7,1,0,0.10
2014-12-5,-90,-90,-90,-100,0,200,0,0,100,31.00,28.12,14,5,0,0.81
2014-12-6,-90,-77,-90,-100,0,200,0,0,100,31.12,31.00,7,0,0,0.08
2014-12-7,60,52,54,53,44,40,81,67,60,31.08,30.20,3,0,0,0.00
2014-12-8,65,60,55,57,48,41,79,67,52,30.23,30.16,0,0,0,0.00
2014-12-9,67,60,56,58,50,46,79,70,59,30.21,30.09,3,0,0,0.00
2014-12-10,62,58,54,55,49,42,79,72,63,30.10,29.90,10,1,0,0.00
2014-12-11,55,-76,-90,41,4,32,61,6,40,30.33,29.85,29,12,0,4.59
2014-12-12,-90,-82,-90,-100,0,200,0,0,100,30.94,30.34,6,0,0,0.56
2014-12-13,55,43,44,47,36,36,78,67,71,30.97,30.21,3,0,0,0.01
2014-12-14,54,49,46,46,39,33,76,70,57,30.21,30.06,6,0,0,0.00
2014-12-15,53,-14,-90,44,17,24,76,31,37,30.28,29.95,24,6,0,1.62
2014-12-16,54,-21,-90,39,13,25,70,24,38,30.61,30.28,16,2,0,0.90
2014-12-17,51,48,45,43,36,23,75,66,40,30.35,30.15,5,0,0,0.15
2014-12-18,48,-64,-90,32,2,23,54,7,38,30.89,30.14,3,0,0,0.24
2014-12-19,52,-14,-90,41,17,25,72,30,37,30.91,30.45,4,0,0,0.64
2014-12-20,54,-60,-90,46,6,45,76,10,72,31.12,30.52,5,0,0,0.79
2014-12-21,66,60,53,57,50,35,74,69,50,30.98,30.25,13,2,0,0.00
2014-12-22,70,65,60,58,47,37,70,53,32,30.25,30.12,7,1,0,0.00
2014-12-23,70,65,59,58,47,40,71,53,39,30.18,30.10,5,0,0,0.00
2014-12-24,65,56,45,53,42,34,74,61,41,30.12,29.95,7,1,0,0.02
2014-12-25,55,47,43,34,28,23,66,48,31,30.12,30.00,18,2,0,0.00
2014-12-26,53,47,44,32,25,19,49,42,35,30.29,30.07,14,2,0,0.00
2014-12-27,52,46,43,40,36,28,75,67,52,30.41,30.28,2,0,0,0.00
2014-12-28,55,49,44,44,36,25,72,61,47,30.39,30.26,4,0,0,0.00
2014-12-29,53,48,44,45,38,31,75,70,57,30.26,30.12,3,0,0,0.00
2014-12-30,49,43,37,36,26,11,74,53,30,30.16,30.06,21,4,0,0.00
2014-12-31,54,44,35,28,15,6,55,32,19,30.24,30.12,17,2,0,0.00
2015-1-1,53,45,41,43,32,10,75,62,25,30.21,30.11,6,0,0,0.00
2015-1-2,52,46,42,42,38,32,76,72,64,30.25,30.13,3,0,0,0.00